Time;durP1;ratioP1;P1;durP2;ratioP2;P2;SDS_P1;SDS_P2;PMS_P1;PMS_P2;Temp;Humidity;BMP_temperature;BMP_pressure;BME280_temperature;BME280_humidity;BME280_pressure;Samples;Min_cycle;Max_cycle;Signal;HPM_P1;HPM_P2
2022/01/20 00:01:55;;;;;;;8.33;2.83;;;5.60;99.90;;;;;;5057489;28;20208;-68
2022/01/20 00:04:40;;;;;;;5.30;3.50;;;5.60;99.90;;;;;;5060058;28;20221;-69
2022/01/20 00:26:13;;;;;;;6.17;3.60;;;5.50;99.90;;;;;;5058024;28;20651;-69
2022/01/20 00:34:18;;;;;;;5.33;3.17;;;5.60;99.90;;;;;;5064756;28;20590;-68
2022/01/20 00:39:27;;;;;;;6.80;3.30;;;5.60;99.90;;;;;;5055275;28;20197;-68
2022/01/20 00:41:54;;;;;;;4.40;3.27;;;5.50;99.90;;;;;;5064386;28;20683;-69
2022/01/20 00:44:23;;;;;;;5.10;3.30;;;5.40;99.90;;;;;;5062038;28;20215;-68
2022/01/20 00:46:50;;;;;;;4.20;2.93;;;5.50;99.90;;;;;;5061053;28;20564;-69
2022/01/20 00:49:17;;;;;;;8.30;3.60;;;5.60;99.90;;;;;;5061258;28;20556;-68
2022/01/20 00:51:45;;;;;;;4.80;3.10;;;5.50;99.90;;;;;;5059063;28;20225;-68
2022/01/20 00:54:18;;;;;;;5.53;3.53;;;5.60;99.90;;;;;;5065542;28;20348;-68
2022/01/20 00:56:45;;;;;;;6.33;3.33;;;5.60;99.90;;;;;;5062924;28;20190;-68
2022/01/20 00:59:13;;;;;;;4.70;3.13;;;5.50;99.90;;;;;;5069389;28;20283;-69
2022/01/20 01:01:40;;;;;;;4.93;3.20;;;5.50;99.90;;;;;;5061063;28;20323;-69
2022/01/20 01:04:06;;;;;;;4.13;2.97;;;5.60;99.90;;;;;;5068239;28;20218;-68
2022/01/20 01:09:05;;;;;;;4.97;3.10;;;5.60;99.90;;;;;;5068782;28;20225;-69
2022/01/20 01:11:34;;;;;;;7.83;3.23;;;5.70;99.90;;;;;;5067026;28;20218;-68
2022/01/20 01:14:02;;;;;;;3.90;2.73;;;5.70;99.90;;;;;;5055033;28;20222;-68
2022/01/20 01:24:42;;;;;;;4.97;2.93;;;5.50;99.90;;;;;;5062876;28;20221;-68
2022/01/20 01:27:11;;;;;;;5.67;3.30;;;5.30;99.90;;;;;;5066130;28;20190;-68
2022/01/20 01:32:11;;;;;;;4.53;3.30;;;5.00;99.90;;;;;;5064598;28;20303;-68
2022/01/20 01:34:41;;;;;;;5.40;3.20;;;4.90;99.90;;;;;;5060043;28;20225;-68
2022/01/20 01:37:24;;;;;;;6.43;3.40;;;4.90;99.90;;;;;;5064797;28;20191;-68
2022/01/20 01:39:51;;;;;;;4.87;3.03;;;4.80;99.90;;;;;;5058476;28;20675;-69
2022/01/20 01:42:42;;;;;;;5.47;3.10;;;4.80;99.90;;;;;;5064093;28;20204;-68
2022/01/20 01:45:13;;;;;;;7.77;3.30;;;4.80;99.90;;;;;;5062573;28;20220;-68
2022/01/20 01:47:40;;;;;;;6.50;3.27;;;4.80;99.90;;;;;;5056307;28;20878;-68
2022/01/20 01:50:07;;;;;;;5.00;3.13;;;4.90;99.90;;;;;;5067475;28;20206;-69
2022/01/20 01:52:34;;;;;;;7.00;3.20;;;4.90;99.90;;;;;;5066408;28;20238;-68
2022/01/20 01:55:01;;;;;;;6.13;3.10;;;4.90;99.90;;;;;;5067896;28;20215;-68
2022/01/20 01:57:28;;;;;;;5.87;2.90;;;5.00;99.90;;;;;;5072221;28;20187;-68
2022/01/20 01:59:55;;;;;;;5.90;3.23;;;5.00;99.90;;;;;;5062753;28;20192;-69
2022/01/20 02:02:23;;;;;;;11.37;3.27;;;5.00;99.90;;;;;;5062602;28;20202;-68
2022/01/20 02:04:51;;;;;;;5.70;3.10;;;5.00;99.90;;;;;;5061148;28;20588;-70
2022/01/20 02:20:39;;;;;;;9.30;3.80;;;4.90;99.90;;;;;;5059631;28;20194;-68
2022/01/20 02:23:06;;;;;;;7.70;4.17;;;4.80;99.90;;;;;;5066776;28;20201;-69
2022/01/20 02:25:35;;;;;;;9.43;4.17;;;4.90;99.90;;;;;;5062436;28;20198;-68
2022/01/20 02:28:07;;;;;;;10.27;4.20;;;4.80;99.90;;;;;;5078400;28;20662;-68
2022/01/20 02:30:36;;;;;;;8.50;4.27;;;4.80;99.90;;;;;;5069594;28;20192;-68
2022/01/20 02:33:06;;;;;;;10.23;4.10;;;4.80;99.90;;;;;;5059865;28;20301;-68
2022/01/20 02:35:41;;;;;;;7.67;4.10;;;4.80;99.90;;;;;;5059493;28;20191;-68
2022/01/20 02:38:17;;;;;;;8.73;4.37;;;5.00;99.90;;;;;;5050399;28;20546;-69
2022/01/20 02:46:08;;;;;;;11.07;4.03;;;5.00;99.90;;;;;;5059087;28;20459;-68
2022/01/20 02:48:36;;;;;;;8.60;4.03;;;4.90;99.90;;;;;;5059856;28;20279;-68
2022/01/20 02:51:02;;;;;;;8.70;3.80;;;4.90;99.90;;;;;;5061241;28;20204;-68
2022/01/20 02:53:29;;;;;;;7.83;3.83;;;5.00;99.90;;;;;;5069020;28;20705;-68
2022/01/20 02:55:56;;;;;;;13.43;4.20;;;4.90;99.90;;;;;;5062679;28;20203;-68
2022/01/20 02:58:22;;;;;;;8.03;3.70;;;4.90;99.90;;;;;;5057501;28;20621;-68
2022/01/20 03:00:50;;;;;;;8.03;3.83;;;4.80;99.90;;;;;;5062080;28;20189;-68
2022/01/20 03:03:16;;;;;;;10.60;4.30;;;4.60;99.90;;;;;;5066026;28;20562;-69
2022/01/20 03:05:43;;;;;;;10.00;3.90;;;4.50;99.90;;;;;;5064184;28;20207;-69
2022/01/20 03:08:10;;;;;;;14.77;4.93;;;4.60;99.90;;;;;;5062029;28;20696;-68
2022/01/20 03:10:38;;;;;;;18.70;5.27;;;4.60;99.90;;;;;;5063836;28;20787;-68
2022/01/20 03:13:06;;;;;;;15.23;4.70;;;4.70;99.90;;;;;;5058823;28;20702;-68
2022/01/20 03:15:35;;;;;;;18.20;5.30;;;4.60;99.90;;;;;;5059505;28;20194;-68
2022/01/20 03:18:04;;;;;;;16.37;5.10;;;4.60;99.90;;;;;;5065439;28;20221;-68
2022/01/20 03:20:32;;;;;;;16.67;5.30;;;4.70;99.90;;;;;;5063099;28;20194;-68
2022/01/20 03:22:59;;;;;;;20.90;5.37;;;4.60;99.90;;;;;;5061650;28;20703;-68
2022/01/20 03:25:27;;;;;;;14.20;5.53;;;4.60;99.90;;;;;;5056671;28;20206;-68
2022/01/20 03:27:55;;;;;;;22.43;5.80;;;4.70;99.90;;;;;;5066196;28;20259;-68
2022/01/20 03:30:23;;;;;;;13.03;5.60;;;4.60;99.90;;;;;;5061176;28;20199;-68
2022/01/20 03:32:50;;;;;;;17.50;5.27;;;4.60;99.90;;;;;;5069146;28;20275;-68
2022/01/20 03:35:17;;;;;;;15.47;5.13;;;4.50;99.90;;;;;;5057795;28;20210;-68
2022/01/20 03:37:43;;;;;;;11.70;4.80;;;4.50;99.90;;;;;;5062678;28;20201;-68
2022/01/20 03:40:11;;;;;;;13.50;4.60;;;4.50;99.90;;;;;;5064267;28;20190;-68
2022/01/20 03:42:38;;;;;;;12.33;4.87;;;4.30;99.90;;;;;;5059780;28;20211;-68
2022/01/20 03:45:05;;;;;;;19.73;5.37;;;4.30;99.90;;;;;;5058927;28;20586;-68
2022/01/20 03:47:33;;;;;;;19.30;5.70;;;4.20;99.90;;;;;;5054834;28;20198;-68
2022/01/20 03:52:27;;;;;;;11.27;4.47;;;4.00;99.90;;;;;;5064273;28;20220;-68
2022/01/20 03:54:54;;;;;;;14.20;5.17;;;3.80;99.90;;;;;;5053718;28;20218;-68
2022/01/20 03:57:21;;;;;;;12.83;3.90;;;3.70;99.90;;;;;;5061108;28;20193;-68
2022/01/20 03:59:48;;;;;;;13.80;4.63;;;3.60;99.90;;;;;;5064495;28;20198;-69
2022/01/20 04:02:15;;;;;;;15.37;4.67;;;3.50;99.90;;;;;;5063909;28;20190;-68
2022/01/20 04:04:42;;;;;;;23.70;5.50;;;3.50;99.90;;;;;;5063677;28;20218;-69
2022/01/20 04:07:08;;;;;;;15.33;4.80;;;3.70;99.90;;;;;;5059010;28;20614;-69
2022/01/20 04:09:35;;;;;;;15.23;4.77;;;3.70;99.90;;;;;;5056375;28;20243;-69
2022/01/20 04:12:02;;;;;;;24.10;5.33;;;3.70;99.90;;;;;;5064879;28;20198;-70
2022/01/20 04:14:32;;;;;;;10.40;5.27;;;3.80;99.90;;;;;;5056384;28;20210;-69
2022/01/20 04:19:30;;;;;;;15.23;4.60;;;3.80;99.90;;;;;;5056081;28;20196;-69
2022/01/20 04:21:58;;;;;;;15.23;5.20;;;3.90;99.90;;;;;;5058082;28;20240;-69
2022/01/20 04:24:25;;;;;;;17.27;5.10;;;4.00;99.90;;;;;;5058293;28;20257;-69
2022/01/20 04:26:52;;;;;;;21.10;5.40;;;4.00;99.90;;;;;;5069960;28;20205;-69
2022/01/20 04:29:18;;;;;;;16.03;5.10;;;4.00;99.90;;;;;;5063337;28;20795;-69
2022/01/20 04:31:48;;;;;;;15.57;4.60;;;4.10;99.90;;;;;;5066996;28;20191;-69
2022/01/20 04:34:15;;;;;;;18.37;5.07;;;4.20;99.90;;;;;;5066360;28;20229;-69
2022/01/20 04:36:45;;;;;;;22.00;5.30;;;4.10;99.90;;;;;;5066898;28;20194;-69
2022/01/20 04:39:16;;;;;;;23.50;5.70;;;4.10;99.90;;;;;;5064442;28;20669;-69
2022/01/20 04:41:43;;;;;;;14.63;5.17;;;4.10;99.90;;;;;;5063156;28;20201;-69
2022/01/20 04:44:30;;;;;;;17.30;5.27;;;4.10;99.90;;;;;;5069520;28;20592;-69
2022/01/20 04:47:10;;;;;;;15.90;4.60;;;4.10;99.90;;;;;;5070524;28;20209;-68
2022/01/20 04:57:53;;;;;;;13.77;4.17;;;4.40;99.90;;;;;;5066404;28;20193;-68
2022/01/20 05:00:20;;;;;;;16.57;4.20;;;4.50;99.90;;;;;;5060437;28;20197;-69
2022/01/20 05:02:47;;;;;;;14.40;4.60;;;4.60;99.90;;;;;;5067864;28;20226;-70
2022/01/20 05:05:14;;;;;;;16.80;4.13;;;4.60;99.90;;;;;;5066075;28;20246;-70
2022/01/20 05:07:42;;;;;;;13.73;3.80;;;4.70;99.90;;;;;;5065998;28;20684;-70
2022/01/20 05:10:11;;;;;;;11.43;3.63;;;4.70;99.90;;;;;;5061333;28;20195;-70
2022/01/20 05:15:21;;;;;;;11.77;3.53;;;4.60;99.90;;;;;;5065585;28;20214;-68
2022/01/20 05:17:48;;;;;;;15.43;3.77;;;4.60;99.90;;;;;;5066396;28;20685;-68
2022/01/20 05:20:15;;;;;;;16.90;3.73;;;4.70;99.90;;;;;;5069198;28;20254;-70
2022/01/20 05:22:44;;;;;;;14.70;3.70;;;4.70;99.90;;;;;;5067013;28;20280;-68
2022/01/20 05:25:11;;;;;;;12.03;3.30;;;4.80;99.90;;;;;;5066748;28;20210;-68
2022/01/20 05:27:38;;;;;;;17.37;3.20;;;4.80;99.90;;;;;;5063637;28;20544;-68
2022/01/20 05:30:05;;;;;;;11.33;3.13;;;4.80;99.90;;;;;;5068585;28;20196;-69
2022/01/20 05:32:32;;;;;;;15.83;3.40;;;4.70;99.90;;;;;;5065151;28;20201;-69
2022/01/20 05:34:59;;;;;;;13.03;3.17;;;4.70;99.90;;;;;;5063095;28;20219;-69
2022/01/20 05:37:25;;;;;;;10.30;3.50;;;4.70;99.90;;;;;;5073093;28;20191;-69
2022/01/20 05:39:52;;;;;;;13.30;3.27;;;4.60;99.90;;;;;;5060263;28;20481;-69
2022/01/20 05:42:18;;;;;;;12.33;3.17;;;4.50;99.90;;;;;;5067629;28;20663;-69
2022/01/20 05:44:49;;;;;;;9.37;2.63;;;4.50;99.90;;;;;;5063363;28;20588;-69
2022/01/20 05:47:25;;;;;;;10.67;2.80;;;4.40;99.90;;;;;;5071608;28;20204;-69
2022/01/20 05:49:52;;;;;;;12.33;3.10;;;4.40;99.90;;;;;;5062740;28;20210;-70
2022/01/20 05:52:19;;;;;;;13.67;3.33;;;4.30;99.90;;;;;;5068870;28;20194;-70
2022/01/20 05:54:46;;;;;;;13.70;3.33;;;4.30;99.90;;;;;;5070069;28;20219;-70
2022/01/20 05:57:12;;;;;;;14.60;3.23;;;4.30;99.90;;;;;;5070164;28;20200;-70
2022/01/20 05:59:39;;;;;;;15.97;3.13;;;4.30;99.90;;;;;;5062351;28;20532;-70
2022/01/20 06:02:26;;;;;;;12.63;2.57;;;4.20;99.90;;;;;;5064022;28;20195;-70
2022/01/20 06:04:53;;;;;;;12.53;3.33;;;4.10;99.90;;;;;;5067744;28;20217;-70
2022/01/20 06:07:20;;;;;;;11.50;3.10;;;4.10;99.90;;;;;;5069597;28;20200;-70
2022/01/20 06:09:46;;;;;;;8.40;3.40;;;4.10;99.90;;;;;;5068986;28;20278;-70
2022/01/20 06:12:13;;;;;;;7.27;3.00;;;4.20;99.90;;;;;;5072578;28;20184;-70
2022/01/20 06:14:40;;;;;;;17.43;3.53;;;4.30;99.90;;;;;;5069023;28;20247;-70
2022/01/20 06:17:06;;;;;;;14.50;3.60;;;4.30;99.90;;;;;;5059208;28;20202;-70
2022/01/20 06:19:33;;;;;;;13.97;3.77;;;4.30;99.90;;;;;;5064489;28;20715;-70
2022/01/20 06:22:00;;;;;;;17.43;3.53;;;4.40;99.90;;;;;;5069063;28;20198;-68
2022/01/20 06:24:27;;;;;;;11.03;3.57;;;4.30;99.90;;;;;;5070254;28;20607;-68
2022/01/20 06:26:53;;;;;;;16.00;3.93;;;4.50;99.90;;;;;;5069125;28;20191;-68
2022/01/20 06:29:20;;;;;;;13.43;3.23;;;4.50;99.90;;;;;;5070383;28;20206;-68
2022/01/20 06:31:47;;;;;;;12.23;2.87;;;4.60;99.90;;;;;;5065623;28;20677;-68
2022/01/20 06:34:13;;;;;;;15.47;3.07;;;4.60;99.90;;;;;;5067443;28;20271;-68
2022/01/20 06:36:40;;;;;;;15.20;3.07;;;4.60;99.90;;;;;;5072143;28;20199;-68
2022/01/20 06:39:06;;;;;;;13.97;2.93;;;4.60;99.90;;;;;;5070935;28;20593;-68
2022/01/20 06:41:37;;;;;;;10.20;2.80;;;4.60;99.90;;;;;;5062165;28;20675;-68
2022/01/20 06:44:05;;;;;;;9.67;2.80;;;4.60;99.90;;;;;;5060366;28;20228;-68
2022/01/20 06:46:32;;;;;;;10.27;3.10;;;4.60;99.90;;;;;;5069673;28;20206;-68
2022/01/20 06:48:58;;;;;;;13.17;2.87;;;4.60;99.90;;;;;;5067751;28;20204;-68
2022/01/20 06:51:26;;;;;;;7.03;2.10;;;4.60;99.90;;;;;;5068141;28;20286;-68
2022/01/20 06:53:53;;;;;;;5.57;1.77;;;4.50;99.90;;;;;;5060970;28;20224;-68
2022/01/20 06:56:20;;;;;;;7.73;2.47;;;4.60;99.90;;;;;;5060554;28;20660;-69
2022/01/20 06:59:05;;;;;;;15.30;2.50;;;4.50;99.90;;;;;;5061217;28;20588;-68
2022/01/20 07:01:32;;;;;;;9.80;2.23;;;4.40;99.90;;;;;;5063134;28;20666;-68
2022/01/20 07:03:59;;;;;;;8.87;2.30;;;4.40;99.90;;;;;;5068440;28;20256;-68
2022/01/20 07:06:27;;;;;;;9.47;2.20;;;4.20;99.90;;;;;;5064419;28;20722;-68
2022/01/20 07:08:57;;;;;;;11.77;2.90;;;4.20;99.90;;;;;;5065092;28;20195;-67
2022/01/20 07:11:24;;;;;;;9.00;2.60;;;4.20;99.90;;;;;;5057629;28;20204;-67
2022/01/20 07:13:50;;;;;;;11.20;2.60;;;4.30;99.90;;;;;;5060486;28;20226;-66
2022/01/20 07:16:17;;;;;;;5.17;2.13;;;4.30;99.90;;;;;;5061407;28;20678;-67
2022/01/20 07:18:44;;;;;;;11.60;3.03;;;4.30;99.90;;;;;;5060213;28;20196;-66
2022/01/20 07:21:11;;;;;;;7.90;1.83;;;4.40;99.90;;;;;;5063777;28;20190;-66
2022/01/20 07:23:37;;;;;;;6.43;1.47;;;4.30;99.90;;;;;;5056630;28;20628;-67
2022/01/20 07:26:04;;;;;;;7.33;2.30;;;4.30;99.90;;;;;;5067729;28;20205;-67
2022/01/20 07:28:31;;;;;;;8.00;1.70;;;4.30;99.90;;;;;;5064950;28;20195;-67
2022/01/20 07:30:58;;;;;;;6.40;1.57;;;4.40;99.90;;;;;;5059822;28;20209;-67
2022/01/20 07:33:24;;;;;;;4.53;1.70;;;4.20;99.90;;;;;;5061391;28;20272;-72
2022/01/20 07:35:51;;;;;;;6.97;2.10;;;4.20;99.90;;;;;;5062175;28;20194;-67
2022/01/20 07:38:20;;;;;;;6.87;1.80;;;4.20;99.90;;;;;;5068251;28;20197;-67
2022/01/20 07:40:47;;;;;;;10.57;2.50;;;4.30;99.90;;;;;;5067014;28;20189;-67
2022/01/20 07:43:14;;;;;;;5.23;1.90;;;4.40;99.90;;;;;;5066499;28;20293;-67
2022/01/20 07:45:40;;;;;;;10.20;2.20;;;4.30;99.90;;;;;;5064734;28;20666;-67
2022/01/20 07:48:07;;;;;;;9.87;2.40;;;4.30;99.90;;;;;;5061470;28;20198;-67
2022/01/20 07:50:34;;;;;;;7.60;2.40;;;4.40;99.90;;;;;;5064742;28;20189;-67
2022/01/20 07:53:01;;;;;;;6.97;2.40;;;4.40;99.90;;;;;;5067646;28;20521;-67
2022/01/20 07:55:27;;;;;;;8.87;2.13;;;4.50;99.90;;;;;;5061569;28;20707;-67
2022/01/20 07:57:54;;;;;;;8.73;1.60;;;4.60;99.90;;;;;;5058149;28;20198;-70
2022/01/20 08:00:21;;;;;;;5.37;2.50;;;4.70;99.90;;;;;;5056989;28;20210;-69
2022/01/20 08:02:48;;;;;;;6.00;2.10;;;4.70;99.90;;;;;;5064331;28;20188;-68
2022/01/20 08:05:16;;;;;;;5.13;2.00;;;4.70;99.90;;;;;;5057601;28;20367;-68
2022/01/20 08:07:42;;;;;;;9.20;2.33;;;4.70;99.90;;;;;;5058849;28;20223;-69
2022/01/20 08:10:11;;;;;;;2.53;1.43;;;4.70;99.90;;;;;;5063413;28;20198;-68
2022/01/20 08:12:38;;;;;;;5.50;2.07;;;4.80;99.90;;;;;;5051274;28;20293;-67
2022/01/20 08:15:09;;;;;;;7.57;1.80;;;4.90;99.90;;;;;;5072358;28;20229;-66
2022/01/20 08:17:37;;;;;;;6.23;1.87;;;4.80;99.90;;;;;;5055285;28;20190;-65
2022/01/20 08:20:05;;;;;;;9.60;1.80;;;4.80;99.90;;;;;;5051442;28;20197;-66
2022/01/20 08:22:34;;;;;;;8.33;2.10;;;4.90;99.90;;;;;;5053430;28;20200;-66
2022/01/20 08:25:08;;;;;;;6.40;1.70;;;4.90;99.90;;;;;;5058508;28;20224;-66
2022/01/20 08:27:38;;;;;;;8.30;1.80;;;5.00;99.90;;;;;;5058776;28;20294;-65
2022/01/20 08:30:07;;;;;;;7.43;2.00;;;5.00;99.90;;;;;;5062644;28;20203;-66
2022/01/20 08:32:34;;;;;;;4.80;1.63;;;5.00;99.90;;;;;;5057964;28;20196;-64
2022/01/20 08:35:05;;;;;;;4.67;1.53;;;5.10;99.90;;;;;;5055997;28;20223;-64
2022/01/20 08:37:33;;;;;;;8.83;2.10;;;5.00;99.90;;;;;;5058676;28;20194;-65
2022/01/20 08:40:04;;;;;;;5.37;2.10;;;5.10;99.90;;;;;;5057972;28;20858;-65
2022/01/20 08:42:32;;;;;;;6.87;2.00;;;5.10;99.90;;;;;;5077042;28;20193;-66
2022/01/20 08:44:59;;;;;;;5.90;2.00;;;5.00;99.90;;;;;;5061851;28;20221;-66
2022/01/20 08:47:26;;;;;;;3.83;1.60;;;5.10;99.90;;;;;;5056431;28;20201;-66
2022/01/20 08:49:54;;;;;;;5.80;1.70;;;4.90;99.90;;;;;;5062001;28;20592;-67
2022/01/20 08:52:21;;;;;;;4.27;1.60;;;4.50;99.90;;;;;;5055236;28;20202;-68
2022/01/20 08:54:48;;;;;;;7.40;2.17;;;4.50;99.90;;;;;;5060132;28;20237;-65
2022/01/20 08:57:15;;;;;;;4.20;1.67;;;4.50;99.90;;;;;;5062745;28;20186;-66
2022/01/20 08:59:42;;;;;;;8.70;2.13;;;4.60;99.90;;;;;;5059142;28;20202;-65
2022/01/20 09:02:10;;;;;;;6.47;2.40;;;4.60;99.90;;;;;;5062416;28;20201;-65
2022/01/20 09:04:37;;;;;;;6.17;2.20;;;4.70;99.90;;;;;;5064139;28;20234;-65
2022/01/20 09:07:07;;;;;;;5.67;1.67;;;4.70;99.90;;;;;;5069730;28;20198;-66
2022/01/20 09:09:40;;;;;;;7.67;2.20;;;4.70;99.90;;;;;;5067814;28;20569;-65
2022/01/20 09:17:24;;;;;;;6.93;2.00;;;4.60;99.90;;;;;;5057591;28;20208;-67
2022/01/20 09:19:56;;;;;;;8.93;2.00;;;4.50;99.90;;;;;;5063679;28;20213;-66
2022/01/20 09:22:24;;;;;;;6.37;2.00;;;4.50;99.90;;;;;;5056882;28;20199;-65
2022/01/20 09:24:51;;;;;;;7.87;2.67;;;4.40;99.90;;;;;;5055421;28;20210;-65
2022/01/20 09:27:18;;;;;;;10.80;1.93;;;4.40;99.90;;;;;;5056410;28;20202;-65
2022/01/20 09:29:46;;;;;;;22.50;4.33;;;4.60;99.90;;;;;;5060275;28;20199;-65
2022/01/20 09:32:16;;;;;;;7.53;2.80;;;4.70;99.90;;;;;;5057381;28;20200;-65
2022/01/20 09:34:43;;;;;;;8.20;2.10;;;4.90;99.90;;;;;;5069074;28;20219;-64
2022/01/20 09:37:10;;;;;;;6.80;2.10;;;5.10;99.90;;;;;;5067711;28;20197;-64
2022/01/20 09:39:38;;;;;;;6.73;1.90;;;5.20;99.90;;;;;;5063114;28;20195;-64
2022/01/20 09:42:06;;;;;;;10.03;1.93;;;5.40;99.90;;;;;;5063251;28;20203;-66
2022/01/20 09:44:33;;;;;;;5.97;1.90;;;5.50;99.90;;;;;;5051930;28;20233;-66
2022/01/20 09:47:00;;;;;;;9.03;2.30;;;5.40;99.90;;;;;;5051816;28;20203;-66
2022/01/20 09:49:27;;;;;;;5.03;2.07;;;5.50;99.90;;;;;;5062541;28;20202;-68
2022/01/20 09:51:53;;;;;;;10.23;2.57;;;5.80;99.90;;;;;;5064223;28;20822;-66
2022/01/20 09:54:20;;;;;;;5.47;2.03;;;5.90;99.90;;;;;;5055671;28;20237;-69
2022/01/20 09:56:47;;;;;;;8.10;2.00;;;5.90;99.90;;;;;;5060864;28;20210;-67
2022/01/20 09:59:13;;;;;;;3.43;1.80;;;5.90;99.90;;;;;;5050563;28;20572;-69
2022/01/20 10:01:44;;;;;;;8.93;2.23;;;5.90;99.90;;;;;;5062143;28;20203;-67
2022/01/20 10:04:18;;;;;;;7.17;2.23;;;5.90;99.90;;;;;;5056404;28;20696;-66
2022/01/20 10:06:57;;;;;;;9.20;2.03;;;5.80;99.90;;;;;;5065837;28;20198;-68
2022/01/20 10:09:36;;;;;;;7.13;2.00;;;5.90;99.90;;;;;;5057200;28;20205;-67
2022/01/20 10:12:06;;;;;;;5.80;1.70;;;5.90;99.90;;;;;;5065921;28;20190;-67
2022/01/20 10:14:42;;;;;;;5.17;1.80;;;5.90;99.90;;;;;;5061879;28;20214;-66
2022/01/20 10:17:15;;;;;;;7.80;1.90;;;5.80;99.90;;;;;;5060344;28;20216;-65
2022/01/20 10:19:42;;;;;;;6.73;2.00;;;5.90;99.90;;;;;;5056457;28;20200;-66
2022/01/20 10:22:17;;;;;;;8.70;1.90;;;6.00;99.90;;;;;;5059532;28;20570;-65
2022/01/20 10:25:08;;;;;;;7.13;2.17;;;5.90;99.90;;;;;;5066471;28;20218;-67
2022/01/20 10:27:46;;;;;;;6.67;1.70;;;6.20;99.90;;;;;;5061735;28;20204;-68
2022/01/20 10:30:13;;;;;;;6.27;1.47;;;6.10;99.90;;;;;;5056399;28;20209;-67
2022/01/20 10:32:41;;;;;;;4.60;1.80;;;5.80;99.90;;;;;;5051731;28;20197;-68
2022/01/20 10:35:09;;;;;;;6.53;1.50;;;5.80;99.90;;;;;;5058239;28;20222;-66
2022/01/20 10:37:35;;;;;;;5.57;1.87;;;5.80;99.90;;;;;;5061869;28;20226;-65
2022/01/20 10:40:11;;;;;;;5.93;2.03;;;5.70;99.90;;;;;;5064439;28;20197;-65
2022/01/20 10:42:44;;;;;;;6.33;2.20;;;5.60;99.90;;;;;;5057800;28;20200;-67
2022/01/20 10:45:25;;;;;;;7.13;1.90;;;5.60;99.90;;;;;;5062783;28;20229;-65
2022/01/20 10:47:54;;;;;;;6.50;1.90;;;5.50;99.90;;;;;;5055976;28;20195;-66
2022/01/20 10:50:27;;;;;;;5.83;2.07;;;5.70;99.90;;;;;;5062647;28;20203;-66
2022/01/20 10:52:54;;;;;;;7.17;2.10;;;5.60;99.90;;;;;;5055730;28;20285;-67
2022/01/20 10:55:30;;;;;;;9.30;2.63;;;5.60;99.90;;;;;;5054627;28;20222;-67
2022/01/20 10:58:09;;;;;;;5.93;2.10;;;5.70;99.90;;;;;;5063459;28;20665;-67
2022/01/20 11:00:44;;;;;;;4.63;1.97;;;5.70;99.90;;;;;;5063614;28;20207;-66
2022/01/20 11:03:11;;;;;;;9.37;2.13;;;5.80;99.90;;;;;;5053629;28;20683;-66
2022/01/20 11:05:39;;;;;;;6.77;2.20;;;5.90;99.90;;;;;;5054038;28;20226;-68
2022/01/20 11:08:07;;;;;;;6.53;1.80;;;5.90;99.90;;;;;;5065142;28;20207;-68
2022/01/20 11:10:34;;;;;;;4.03;1.77;;;5.80;99.90;;;;;;5051999;28;20207;-67
2022/01/20 11:13:01;;;;;;;6.97;1.80;;;5.70;99.90;;;;;;5057754;28;20204;-67
2022/01/20 11:15:29;;;;;;;7.20;2.07;;;5.60;99.90;;;;;;5060473;28;20218;-68
2022/01/20 11:17:57;;;;;;;5.80;2.00;;;5.60;99.90;;;;;;5067704;28;20256;-67
2022/01/20 11:20:28;;;;;;;8.93;2.60;;;5.50;99.90;;;;;;5067006;28;20194;-68
2022/01/20 11:22:56;;;;;;;6.00;2.10;;;5.70;99.90;;;;;;5068107;28;20205;-67
2022/01/20 11:25:25;;;;;;;5.27;1.77;;;5.60;99.90;;;;;;5068643;28;20222;-67
2022/01/20 11:28:08;;;;;;;6.23;2.03;;;5.60;99.90;;;;;;5080470;28;20206;-67
2022/01/20 11:30:39;;;;;;;5.43;2.13;;;5.80;99.90;;;;;;5064498;28;20656;-68
2022/01/20 11:33:09;;;;;;;5.03;1.80;;;6.00;99.90;;;;;;5054850;28;20220;-68
2022/01/20 11:35:49;;;;;;;5.77;1.70;;;6.10;99.90;;;;;;5083105;28;20224;-68
2022/01/20 11:38:19;;;;;;;12.27;2.27;;;6.30;99.90;;;;;;5060416;28;20204;-68
2022/01/20 11:40:59;;;;;;;7.93;2.73;;;6.20;99.90;;;;;;5059549;28;20309;-68
2022/01/20 11:43:43;;;;;;;7.80;2.20;;;6.00;99.90;;;;;;5065492;28;20221;-68
2022/01/20 11:46:13;;;;;;;4.87;1.80;;;5.70;99.90;;;;;;5059271;28;20209;-68
2022/01/20 11:48:58;;;;;;;7.93;2.20;;;5.40;99.90;;;;;;5071859;28;20201;-68
2022/01/20 11:51:41;;;;;;;7.60;2.20;;;5.30;99.90;;;;;;5060367;28;20201;-68
2022/01/20 11:54:26;;;;;;;10.63;2.53;;;5.40;99.90;;;;;;5067989;28;20232;-68
2022/01/20 11:57:04;;;;;;;5.23;1.70;;;5.30;99.90;;;;;;5058623;28;20192;-68
2022/01/20 11:59:46;;;;;;;7.33;2.00;;;5.20;99.90;;;;;;5063770;28;20209;-68
2022/01/20 12:02:25;;;;;;;9.03;2.30;;;5.20;99.90;;;;;;5059382;28;20244;-68
2022/01/20 12:04:52;;;;;;;9.57;2.50;;;5.10;99.90;;;;;;5068096;28;20216;-68
2022/01/20 12:07:27;;;;;;;5.00;2.20;;;5.40;99.90;;;;;;5065178;28;20207;-69
2022/01/20 12:10:10;;;;;;;7.30;2.23;;;5.70;99.90;;;;;;5073049;28;20197;-69
2022/01/20 12:12:39;;;;;;;10.30;2.67;;;5.90;99.90;;;;;;5050721;28;20298;-69
2022/01/20 12:15:16;;;;;;;8.70;2.30;;;6.10;99.90;;;;;;5061911;28;20226;-69
2022/01/20 12:17:54;;;;;;;7.43;2.33;;;6.20;99.90;;;;;;5055319;28;20201;-68
2022/01/20 12:20:22;;;;;;;8.57;2.60;;;6.40;99.90;;;;;;5056605;28;20195;-67
2022/01/20 12:22:50;;;;;;;5.13;2.50;;;6.50;99.90;;;;;;5054479;28;20197;-68
2022/01/20 12:25:28;;;;;;;5.27;1.93;;;6.40;99.90;;;;;;5066865;28;20209;-67
2022/01/20 12:28:04;;;;;;;6.77;2.10;;;6.20;99.90;;;;;;5062693;28;20200;-66
2022/01/20 12:30:33;;;;;;;4.87;2.00;;;6.00;99.90;;;;;;5060919;28;20301;-67
2022/01/20 12:33:12;;;;;;;8.03;2.07;;;5.60;99.90;;;;;;5061662;28;20472;-67
2022/01/20 12:35:43;;;;;;;5.33;2.00;;;5.30;99.90;;;;;;5058988;28;20220;-66
2022/01/20 12:38:39;;;;;;;8.10;2.10;;;5.20;99.90;;;;;;5057619;28;20202;-69
2022/01/20 12:41:11;;;;;;;2.93;1.80;;;5.20;99.90;;;;;;5064284;28;20188;-69
2022/01/20 12:43:56;;;;;;;4.73;1.50;;;4.60;99.90;;;;;;5058061;28;20701;-67
2022/01/20 12:46:29;;;;;;;3.53;1.30;;;3.70;99.90;;;;;;5063083;28;20195;-67
2022/01/20 12:49:11;;;;;;;3.70;1.47;;;3.00;99.90;;;;;;5063282;28;20202;-67
2022/01/20 12:51:40;;;;;;;2.30;1.30;;;2.90;99.90;;;;;;5059902;28;20208;-68
2022/01/20 12:54:08;;;;;;;2.07;1.20;;;2.80;99.90;;;;;;5062851;28;20220;-66
2022/01/20 12:56:37;;;;;;;4.57;1.10;;;2.70;99.90;;;;;;5061065;28;20714;-66
2022/01/20 12:59:05;;;;;;;2.03;0.83;;;2.60;99.90;;;;;;5057604;28;20194;-69
2022/01/20 13:01:54;;;;;;;5.27;1.57;;;2.60;99.90;;;;;;5064943;28;20204;-65
2022/01/20 13:04:23;;;;;;;2.33;1.30;;;2.70;99.90;;;;;;5063846;28;20709;-66
2022/01/20 13:06:55;;;;;;;4.70;0.90;;;2.80;99.90;;;;;;5061965;28;20203;-66
2022/01/20 13:09:24;;;;;;;4.57;1.23;;;2.80;99.90;;;;;;5062777;28;20195;-68
2022/01/20 13:14:32;;;;;;;1.03;0.87;;;2.80;99.90;;;;;;5059128;28;20616;-66
2022/01/20 13:17:00;;;;;;;4.37;1.03;;;2.70;99.90;;;;;;5061464;28;20193;-66
2022/01/20 13:19:33;;;;;;;4.53;1.17;;;2.80;99.90;;;;;;5065496;28;20190;-66
2022/01/20 13:22:01;;;;;;;3.70;1.13;;;3.10;99.90;;;;;;5061826;28;20191;-66
2022/01/20 13:24:29;;;;;;;3.27;1.20;;;3.30;99.90;;;;;;5065045;28;20594;-66
2022/01/20 13:26:57;;;;;;;5.33;1.30;;;3.50;99.90;;;;;;5060976;28;20207;-66
2022/01/20 13:29:26;;;;;;;2.83;1.20;;;3.70;99.90;;;;;;5059957;28;20194;-66
2022/01/20 13:31:57;;;;;;;2.50;1.30;;;3.90;99.90;;;;;;5061226;28;20206;-66
2022/01/20 13:34:24;;;;;;;5.57;1.50;;;4.10;99.90;;;;;;5066343;28;20215;-68
2022/01/20 13:36:55;;;;;;;3.70;1.53;;;4.40;99.90;;;;;;5057841;28;20245;-66
2022/01/20 13:39:37;;;;;;;4.47;1.57;;;4.50;99.90;;;;;;5063205;28;20195;-67
2022/01/20 13:45:12;;;;;;;6.87;1.80;;;4.70;99.90;;;;;;5060633;28;20210;-66
2022/01/20 13:48:09;;;;;;;3.23;1.10;;;4.70;99.90;;;;;;5060447;28;20203;-67
2022/01/20 13:50:41;;;;;;;5.37;1.47;;;4.60;99.90;;;;;;5051273;28;20216;-66
2022/01/20 13:53:16;;;;;;;2.07;1.50;;;4.40;99.90;;;;;;5058741;28;20190;-65
2022/01/20 13:55:45;;;;;;;3.57;1.20;;;4.30;99.90;;;;;;5057177;28;20225;-65
2022/01/20 13:58:32;;;;;;;5.17;1.40;;;4.10;99.90;;;;;;5053241;28;20194;-67
2022/01/20 14:01:05;;;;;;;2.43;1.37;;;4.10;99.90;;;;;;5056007;28;20382;-66
2022/01/20 14:03:32;;;;;;;4.43;1.40;;;4.10;99.90;;;;;;5065163;28;20210;-66
2022/01/20 14:05:59;;;;;;;5.07;1.97;;;4.10;99.90;;;;;;5065021;28;20194;-66
2022/01/20 14:08:26;;;;;;;3.60;1.40;;;4.20;99.90;;;;;;5058753;28;20199;-68
2022/01/20 14:10:54;;;;;;;6.53;1.80;;;4.20;99.90;;;;;;5071736;28;20202;-67
2022/01/20 14:13:22;;;;;;;5.70;1.70;;;4.20;99.90;;;;;;5063285;28;20274;-67
2022/01/20 14:15:51;;;;;;;4.63;1.47;;;4.20;99.90;;;;;;5075285;28;20224;-66
2022/01/20 14:18:21;;;;;;;2.40;1.60;;;4.10;99.90;;;;;;5061452;28;20253;-68
2022/01/20 14:20:48;;;;;;;5.97;1.80;;;4.20;99.90;;;;;;5059029;28;20206;-70
2022/01/20 14:23:15;;;;;;;5.83;1.83;;;4.20;99.90;;;;;;5064932;28;20191;-69
2022/01/20 14:25:43;;;;;;;8.87;1.60;;;4.10;99.90;;;;;;5055841;28;20198;-67
2022/01/20 14:28:10;;;;;;;7.30;1.90;;;4.10;99.90;;;;;;5060785;28;20247;-67
2022/01/20 14:30:38;;;;;;;4.47;1.80;;;4.00;99.90;;;;;;5058856;28;20640;-66
2022/01/20 14:33:07;;;;;;;6.53;2.10;;;4.00;99.90;;;;;;5072790;28;20214;-67